Etusivu
METAR-TAF:

METAR-TAF

Lentoasemat :

Odense, Tanska

Leveyspiiri: 55-29N, Pituuspiiri: 010-20E, korkeus merenpinnasta: 17 m

Tämänhetkinen sää

Tämä raportti tehtiin 25 minuuttia sitten, kello 10.20 UTC
Tuuli 4 kn idästä/kaakosta, vaihdellen idän/koillisen ja etelän/kaakon välillä
Lämpötila 0°C
Kosteus 100%
Ilmanpaine 1027 hPa
Näkyvyys: 0400 m
sumua

METAR: EKOD 281020Z 11004KT 060V160 0400 FG VV002 00/M00 Q1027

Aika: 11:45 (10:45 UTC)

Sääennuste

Tämä raportti tehtiin 31 minuuttia sitten, kello 10.14 UTC
Ennuste voimassa 28. päivästä klo 10 UTC - 28. päivään klo 14 UTC
Tuuli 6 kn idästä
Näkyvyys: 0300 m
100 ft:n korkeudessa
sumua
Tulossa
28. päivästä klo 10 UTC - 28. päivään klo 12 UTC
Näkyvyys: 6000 m
Hajonneita pilviä 600 ft:n korkeudessa
Ajoittain
28. päivästä klo 12 UTC - 28. päivään klo 14 UTC
Hajonneita pilviä 1200 ft:n korkeudessa

TAF: EKOD 281014Z 2810/2814 10006KT 0300 FG VV001 BECMG 2810/2812 6000 NSW BKN006 TEMPO 2812/2814 BKN012

Säähavainnot ja -ennusteet yli 4000 lentoasemalta (METAR- ja TAF-raportit).

Käytössä olevat sääasemat on merkitty karttaan keltaisilla ja punaisilla pisteillä.

Aseta hiiri pisteen päälle nähdäksesi sääaseman nimen.

Klikkaa sitten nähdäksesi säähavainnot ja -ennusteet.

Kartan vaihtaminen: klikkaa mustalla rastilla varustettuja vihreitä pisteitä, niin voit zoomata sisään; viivalla varustettua vihreää pistettä, niin voit zoomata ulos tai vihreitä nuolia, niin pääset viereisille kartoille.


METAR-TAF: